sensor_id;sensor_type;location;lat;lon;timestamp;P1;durP1;ratioP1;P2;durP2;ratioP2
46607;SDS011;32330;51.936;7.184;2024-02-21T00:01:22;17.75;;;10.40;;
46607;SDS011;32330;51.936;7.184;2024-02-21T00:03:49;18.05;;;11.18;;
46607;SDS011;32330;51.936;7.184;2024-02-21T00:06:16;22.23;;;11.15;;
46607;SDS011;32330;51.936;7.184;2024-02-21T00:08:43;25.70;;;11.27;;
46607;SDS011;32330;51.936;7.184;2024-02-21T00:11:10;25.52;;;11.60;;
46607;SDS011;32330;51.936;7.184;2024-02-21T00:13:39;18.92;;;11.13;;
46607;SDS011;32330;51.936;7.184;2024-02-21T00:16:06;22.95;;;11.32;;
46607;SDS011;32330;51.936;7.184;2024-02-21T00:18:33;22.92;;;11.82;;
46607;SDS011;32330;51.936;7.184;2024-02-21T00:21:00;21.85;;;12.40;;
46607;SDS011;32330;51.936;7.184;2024-02-21T00:23:28;27.30;;;13.15;;
46607;SDS011;32330;51.936;7.184;2024-02-21T00:25:55;26.65;;;12.93;;
46607;SDS011;32330;51.936;7.184;2024-02-21T00:28:22;21.00;;;11.98;;
46607;SDS011;32330;51.936;7.184;2024-02-21T00:30:50;22.20;;;11.70;;
46607;SDS011;32330;51.936;7.184;2024-02-21T00:33:18;23.70;;;12.68;;
46607;SDS011;32330;51.936;7.184;2024-02-21T00:35:45;22.52;;;12.13;;
46607;SDS011;32330;51.936;7.184;2024-02-21T00:38:12;27.00;;;12.90;;
46607;SDS011;32330;51.936;7.184;2024-02-21T00:40:39;25.25;;;12.65;;
46607;SDS011;32330;51.936;7.184;2024-02-21T00:43:07;29.65;;;12.52;;
46607;SDS011;32330;51.936;7.184;2024-02-21T00:45:34;28.05;;;13.63;;
46607;SDS011;32330;51.936;7.184;2024-02-21T00:48:02;26.10;;;13.18;;
46607;SDS011;32330;51.936;7.184;2024-02-21T00:50:30;22.65;;;12.88;;
46607;SDS011;32330;51.936;7.184;2024-02-21T00:52:57;19.42;;;12.38;;
46607;SDS011;32330;51.936;7.184;2024-02-21T00:55:23;19.90;;;12.48;;
46607;SDS011;32330;51.936;7.184;2024-02-21T00:57:50;23.83;;;12.98;;
46607;SDS011;32330;51.936;7.184;2024-02-21T01:00:18;26.00;;;13.93;;
46607;SDS011;32330;51.936;7.184;2024-02-21T01:02:45;23.73;;;13.95;;
46607;SDS011;32330;51.936;7.184;2024-02-21T01:05:14;24.88;;;13.60;;
46607;SDS011;32330;51.936;7.184;2024-02-21T01:07:41;24.83;;;14.10;;
46607;SDS011;32330;51.936;7.184;2024-02-21T01:10:08;26.63;;;13.00;;
46607;SDS011;32330;51.936;7.184;2024-02-21T01:12:36;26.55;;;13.90;;
46607;SDS011;32330;51.936;7.184;2024-02-21T01:15:03;23.83;;;13.15;;
46607;SDS011;32330;51.936;7.184;2024-02-21T01:17:31;27.17;;;13.32;;
46607;SDS011;32330;51.936;7.184;2024-02-21T01:19:58;18.98;;;12.00;;
46607;SDS011;32330;51.936;7.184;2024-02-21T01:22:26;27.40;;;13.77;;
46607;SDS011;32330;51.936;7.184;2024-02-21T01:24:54;21.88;;;12.30;;
46607;SDS011;32330;51.936;7.184;2024-02-21T01:27:21;24.70;;;13.40;;
46607;SDS011;32330;51.936;7.184;2024-02-21T01:29:48;24.10;;;13.32;;
46607;SDS011;32330;51.936;7.184;2024-02-21T01:32:15;27.48;;;13.40;;
46607;SDS011;32330;51.936;7.184;2024-02-21T01:34:48;24.13;;;13.63;;
46607;SDS011;32330;51.936;7.184;2024-02-21T01:37:24;22.63;;;12.93;;
46607;SDS011;32330;51.936;7.184;2024-02-21T01:39:53;26.13;;;12.98;;
46607;SDS011;32330;51.936;7.184;2024-02-21T01:42:20;23.25;;;13.32;;
46607;SDS011;32330;51.936;7.184;2024-02-21T01:44:47;22.80;;;12.90;;
46607;SDS011;32330;51.936;7.184;2024-02-21T01:47:14;22.98;;;13.85;;
46607;SDS011;32330;51.936;7.184;2024-02-21T01:49:41;23.33;;;13.45;;
46607;SDS011;32330;51.936;7.184;2024-02-21T01:52:18;23.92;;;14.30;;
46607;SDS011;32330;51.936;7.184;2024-02-21T01:54:57;22.35;;;12.80;;
46607;SDS011;32330;51.936;7.184;2024-02-21T01:57:24;25.02;;;14.18;;
46607;SDS011;32330;51.936;7.184;2024-02-21T01:59:51;25.95;;;13.88;;
46607;SDS011;32330;51.936;7.184;2024-02-21T02:02:19;22.70;;;12.63;;
46607;SDS011;32330;51.936;7.184;2024-02-21T02:04:46;21.50;;;12.68;;
46607;SDS011;32330;51.936;7.184;2024-02-21T02:07:13;22.92;;;12.05;;
46607;SDS011;32330;51.936;7.184;2024-02-21T02:09:42;23.55;;;12.27;;
46607;SDS011;32330;51.936;7.184;2024-02-21T02:12:09;23.63;;;13.55;;
46607;SDS011;32330;51.936;7.184;2024-02-21T02:14:36;26.52;;;13.50;;
46607;SDS011;32330;51.936;7.184;2024-02-21T02:17:03;23.48;;;13.73;;
46607;SDS011;32330;51.936;7.184;2024-02-21T02:19:30;23.17;;;13.73;;
46607;SDS011;32330;51.936;7.184;2024-02-21T02:21:59;25.77;;;12.82;;
46607;SDS011;32330;51.936;7.184;2024-02-21T02:24:38;24.10;;;12.82;;
46607;SDS011;32330;51.936;7.184;2024-02-21T02:27:06;22.08;;;12.90;;
46607;SDS011;32330;51.936;7.184;2024-02-21T02:29:33;22.92;;;12.32;;
46607;SDS011;32330;51.936;7.184;2024-02-21T02:32:00;24.88;;;13.23;;
46607;SDS011;32330;51.936;7.184;2024-02-21T02:34:27;23.20;;;12.68;;
46607;SDS011;32330;51.936;7.184;2024-02-21T02:36:55;31.55;;;13.93;;
46607;SDS011;32330;51.936;7.184;2024-02-21T02:39:22;21.08;;;14.02;;
46607;SDS011;32330;51.936;7.184;2024-02-21T02:41:51;32.25;;;14.80;;
46607;SDS011;32330;51.936;7.184;2024-02-21T02:44:18;23.67;;;13.77;;
46607;SDS011;32330;51.936;7.184;2024-02-21T02:46:45;27.27;;;13.23;;
46607;SDS011;32330;51.936;7.184;2024-02-21T02:49:12;23.58;;;13.07;;
46607;SDS011;32330;51.936;7.184;2024-02-21T02:51:41;22.75;;;12.98;;
46607;SDS011;32330;51.936;7.184;2024-02-21T02:54:08;24.08;;;14.05;;
46607;SDS011;32330;51.936;7.184;2024-02-21T02:56:35;22.20;;;13.15;;
46607;SDS011;32330;51.936;7.184;2024-02-21T02:59:04;23.33;;;13.57;;
46607;SDS011;32330;51.936;7.184;2024-02-21T03:01:33;23.67;;;12.50;;
46607;SDS011;32330;51.936;7.184;2024-02-21T03:04:01;22.80;;;12.73;;
46607;SDS011;32330;51.936;7.184;2024-02-21T03:06:28;27.45;;;13.95;;
46607;SDS011;32330;51.936;7.184;2024-02-21T03:08:55;20.40;;;12.98;;
46607;SDS011;32330;51.936;7.184;2024-02-21T03:11:22;25.73;;;13.55;;
46607;SDS011;32330;51.936;7.184;2024-02-21T03:16:23;24.98;;;13.30;;
46607;SDS011;32330;51.936;7.184;2024-02-21T03:18:50;20.27;;;12.50;;
46607;SDS011;32330;51.936;7.184;2024-02-21T03:21:17;22.75;;;13.32;;
46607;SDS011;32330;51.936;7.184;2024-02-21T03:23:44;20.13;;;12.05;;
46607;SDS011;32330;51.936;7.184;2024-02-21T03:26:11;22.15;;;12.35;;
46607;SDS011;32330;51.936;7.184;2024-02-21T03:28:42;21.23;;;12.30;;
46607;SDS011;32330;51.936;7.184;2024-02-21T03:31:10;22.73;;;12.30;;
46607;SDS011;32330;51.936;7.184;2024-02-21T03:33:40;22.40;;;12.23;;
46607;SDS011;32330;51.936;7.184;2024-02-21T03:36:12;20.27;;;12.40;;
46607;SDS011;32330;51.936;7.184;2024-02-21T03:38:40;18.05;;;11.00;;
46607;SDS011;32330;51.936;7.184;2024-02-21T03:41:07;22.17;;;12.35;;
46607;SDS011;32330;51.936;7.184;2024-02-21T03:43:34;22.85;;;10.90;;
46607;SDS011;32330;51.936;7.184;2024-02-21T03:46:01;20.52;;;11.50;;
46607;SDS011;32330;51.936;7.184;2024-02-21T03:48:28;21.52;;;12.02;;
46607;SDS011;32330;51.936;7.184;2024-02-21T03:50:57;17.35;;;11.20;;
46607;SDS011;32330;51.936;7.184;2024-02-21T03:53:24;20.85;;;11.00;;
46607;SDS011;32330;51.936;7.184;2024-02-21T03:55:51;19.02;;;11.35;;
46607;SDS011;32330;51.936;7.184;2024-02-21T03:58:18;23.50;;;11.20;;
46607;SDS011;32330;51.936;7.184;2024-02-21T04:00:45;20.20;;;10.25;;
46607;SDS011;32330;51.936;7.184;2024-02-21T04:03:13;18.02;;;10.35;;
46607;SDS011;32330;51.936;7.184;2024-02-21T04:05:40;22.05;;;11.88;;
46607;SDS011;32330;51.936;7.184;2024-02-21T04:08:08;20.98;;;11.43;;
46607;SDS011;32330;51.936;7.184;2024-02-21T04:10:35;20.95;;;10.63;;
46607;SDS011;32330;51.936;7.184;2024-02-21T04:13:03;21.88;;;10.38;;
46607;SDS011;32330;51.936;7.184;2024-02-21T04:15:31;20.08;;;10.82;;
46607;SDS011;32330;51.936;7.184;2024-02-21T04:17:58;18.50;;;11.10;;
46607;SDS011;32330;51.936;7.184;2024-02-21T04:20:25;19.50;;;10.50;;
46607;SDS011;32330;51.936;7.184;2024-02-21T04:22:53;16.38;;;10.57;;
46607;SDS011;32330;51.936;7.184;2024-02-21T04:25:22;19.42;;;9.57;;
46607;SDS011;32330;51.936;7.184;2024-02-21T04:27:49;15.75;;;8.52;;
46607;SDS011;32330;51.936;7.184;2024-02-21T04:30:16;20.02;;;9.43;;
46607;SDS011;32330;51.936;7.184;2024-02-21T04:32:44;21.30;;;11.00;;
46607;SDS011;32330;51.936;7.184;2024-02-21T04:35:11;19.70;;;9.75;;
46607;SDS011;32330;51.936;7.184;2024-02-21T04:37:38;17.35;;;9.38;;
46607;SDS011;32330;51.936;7.184;2024-02-21T04:40:06;19.27;;;9.23;;
46607;SDS011;32330;51.936;7.184;2024-02-21T04:42:35;19.08;;;9.18;;
46607;SDS011;32330;51.936;7.184;2024-02-21T04:45:03;16.13;;;9.15;;
46607;SDS011;32330;51.936;7.184;2024-02-21T04:47:30;16.70;;;9.57;;
46607;SDS011;32330;51.936;7.184;2024-02-21T04:49:57;14.45;;;9.38;;
46607;SDS011;32330;51.936;7.184;2024-02-21T04:52:24;14.63;;;8.95;;
46607;SDS011;32330;51.936;7.184;2024-02-21T04:54:51;17.38;;;9.48;;
46607;SDS011;32330;51.936;7.184;2024-02-21T04:57:18;20.65;;;9.68;;
46607;SDS011;32330;51.936;7.184;2024-02-21T04:59:47;16.48;;;9.50;;
46607;SDS011;32330;51.936;7.184;2024-02-21T05:02:14;17.98;;;9.65;;
46607;SDS011;32330;51.936;7.184;2024-02-21T05:04:42;18.17;;;8.85;;
46607;SDS011;32330;51.936;7.184;2024-02-21T05:07:09;13.90;;;9.00;;
46607;SDS011;32330;51.936;7.184;2024-02-21T05:09:37;16.98;;;8.57;;
46607;SDS011;32330;51.936;7.184;2024-02-21T05:12:04;16.55;;;9.15;;
46607;SDS011;32330;51.936;7.184;2024-02-21T05:14:31;21.33;;;9.13;;
46607;SDS011;32330;51.936;7.184;2024-02-21T05:17:00;14.50;;;9.13;;
46607;SDS011;32330;51.936;7.184;2024-02-21T05:19:27;16.63;;;9.43;;
46607;SDS011;32330;51.936;7.184;2024-02-21T05:21:54;17.88;;;9.63;;
46607;SDS011;32330;51.936;7.184;2024-02-21T05:24:21;16.45;;;8.95;;
46607;SDS011;32330;51.936;7.184;2024-02-21T05:26:51;22.65;;;9.27;;
46607;SDS011;32330;51.936;7.184;2024-02-21T05:29:19;17.08;;;9.95;;
46607;SDS011;32330;51.936;7.184;2024-02-21T05:31:56;16.67;;;9.57;;
46607;SDS011;32330;51.936;7.184;2024-02-21T05:34:25;12.32;;;8.23;;
46607;SDS011;32330;51.936;7.184;2024-02-21T05:36:52;19.00;;;8.77;;
46607;SDS011;32330;51.936;7.184;2024-02-21T05:39:20;14.48;;;8.48;;
46607;SDS011;32330;51.936;7.184;2024-02-21T05:41:48;15.23;;;9.48;;
46607;SDS011;32330;51.936;7.184;2024-02-21T05:44:15;14.27;;;8.32;;
46607;SDS011;32330;51.936;7.184;2024-02-21T05:46:43;20.33;;;9.38;;
46607;SDS011;32330;51.936;7.184;2024-02-21T05:49:10;16.20;;;8.95;;
46607;SDS011;32330;51.936;7.184;2024-02-21T05:51:39;14.32;;;8.00;;
46607;SDS011;32330;51.936;7.184;2024-02-21T05:54:06;19.13;;;9.38;;
46607;SDS011;32330;51.936;7.184;2024-02-21T05:56:33;16.33;;;9.48;;
46607;SDS011;32330;51.936;7.184;2024-02-21T05:59:03;13.27;;;8.80;;
46607;SDS011;32330;51.936;7.184;2024-02-21T06:01:30;15.20;;;8.27;;
46607;SDS011;32330;51.936;7.184;2024-02-21T06:03:58;19.52;;;9.63;;
46607;SDS011;32330;51.936;7.184;2024-02-21T06:06:25;15.75;;;9.10;;
46607;SDS011;32330;51.936;7.184;2024-02-21T06:08:53;16.00;;;9.45;;
46607;SDS011;32330;51.936;7.184;2024-02-21T06:15:03;18.20;;;8.00;;
46607;SDS011;32330;51.936;7.184;2024-02-21T06:17:32;17.85;;;9.65;;
46607;SDS011;32330;51.936;7.184;2024-02-21T06:19:59;20.35;;;8.93;;
46607;SDS011;32330;51.936;7.184;2024-02-21T06:22:30;15.00;;;8.43;;
46607;SDS011;32330;51.936;7.184;2024-02-21T06:24:58;16.27;;;8.63;;
46607;SDS011;32330;51.936;7.184;2024-02-21T06:27:25;16.27;;;8.48;;
46607;SDS011;32330;51.936;7.184;2024-02-21T06:29:52;12.00;;;7.82;;
46607;SDS011;32330;51.936;7.184;2024-02-21T06:32:19;14.65;;;8.07;;
46607;SDS011;32330;51.936;7.184;2024-02-21T06:34:47;15.95;;;7.97;;
46607;SDS011;32330;51.936;7.184;2024-02-21T06:37:14;14.45;;;8.88;;
46607;SDS011;32330;51.936;7.184;2024-02-21T06:39:41;15.38;;;8.07;;
46607;SDS011;32330;51.936;7.184;2024-02-21T06:42:10;17.48;;;8.48;;
46607;SDS011;32330;51.936;7.184;2024-02-21T06:44:37;14.45;;;7.70;;
46607;SDS011;32330;51.936;7.184;2024-02-21T06:47:05;14.50;;;8.10;;
46607;SDS011;32330;51.936;7.184;2024-02-21T06:49:33;13.00;;;7.90;;
46607;SDS011;32330;51.936;7.184;2024-02-21T06:52:02;14.18;;;8.43;;
46607;SDS011;32330;51.936;7.184;2024-02-21T06:54:30;14.13;;;8.57;;
46607;SDS011;32330;51.936;7.184;2024-02-21T06:56:57;13.55;;;7.55;;
46607;SDS011;32330;51.936;7.184;2024-02-21T06:59:25;17.25;;;8.18;;
46607;SDS011;32330;51.936;7.184;2024-02-21T07:01:53;16.48;;;7.53;;
46607;SDS011;32330;51.936;7.184;2024-02-21T07:04:21;13.27;;;6.45;;
46607;SDS011;32330;51.936;7.184;2024-02-21T07:06:48;16.23;;;8.23;;
46607;SDS011;32330;51.936;7.184;2024-02-21T07:09:16;13.18;;;7.32;;
46607;SDS011;32330;51.936;7.184;2024-02-21T07:11:43;12.20;;;7.55;;
46607;SDS011;32330;51.936;7.184;2024-02-21T07:14:10;13.93;;;7.28;;
46607;SDS011;32330;51.936;7.184;2024-02-21T07:16:38;13.52;;;7.00;;
46607;SDS011;32330;51.936;7.184;2024-02-21T07:19:05;13.18;;;6.97;;
46607;SDS011;32330;51.936;7.184;2024-02-21T07:21:33;12.75;;;6.80;;
46607;SDS011;32330;51.936;7.184;2024-02-21T07:24:00;12.88;;;6.15;;
46607;SDS011;32330;51.936;7.184;2024-02-21T07:26:27;15.07;;;6.47;;
46607;SDS011;32330;51.936;7.184;2024-02-21T07:28:54;10.88;;;6.40;;
46607;SDS011;32330;51.936;7.184;2024-02-21T07:31:21;11.40;;;7.28;;
46607;SDS011;32330;51.936;7.184;2024-02-21T07:33:49;13.10;;;6.43;;
46607;SDS011;32330;51.936;7.184;2024-02-21T07:36:25;13.48;;;6.70;;
46607;SDS011;32330;51.936;7.184;2024-02-21T07:38:54;13.40;;;6.75;;
46607;SDS011;32330;51.936;7.184;2024-02-21T07:41:21;13.13;;;6.20;;
46607;SDS011;32330;51.936;7.184;2024-02-21T07:43:48;12.27;;;6.10;;
46607;SDS011;32330;51.936;7.184;2024-02-21T07:46:15;9.10;;;5.22;;
46607;SDS011;32330;51.936;7.184;2024-02-21T07:48:42;8.98;;;5.97;;
46607;SDS011;32330;51.936;7.184;2024-02-21T07:51:12;14.85;;;6.60;;
46607;SDS011;32330;51.936;7.184;2024-02-21T07:53:39;11.55;;;6.30;;
46607;SDS011;32330;51.936;7.184;2024-02-21T07:56:09;13.63;;;7.00;;
46607;SDS011;32330;51.936;7.184;2024-02-21T07:58:36;17.95;;;7.63;;
46607;SDS011;32330;51.936;7.184;2024-02-21T08:01:03;11.38;;;6.88;;
46607;SDS011;32330;51.936;7.184;2024-02-21T08:03:31;14.10;;;6.78;;
46607;SDS011;32330;51.936;7.184;2024-02-21T08:05:58;10.98;;;6.10;;
46607;SDS011;32330;51.936;7.184;2024-02-21T08:08:26;11.98;;;6.75;;
46607;SDS011;32330;51.936;7.184;2024-02-21T08:10:53;13.55;;;7.00;;
46607;SDS011;32330;51.936;7.184;2024-02-21T08:13:20;14.98;;;6.88;;
46607;SDS011;32330;51.936;7.184;2024-02-21T08:15:47;13.90;;;6.85;;
46607;SDS011;32330;51.936;7.184;2024-02-21T08:18:14;13.10;;;6.82;;
46607;SDS011;32330;51.936;7.184;2024-02-21T08:20:41;13.80;;;8.43;;
46607;SDS011;32330;51.936;7.184;2024-02-21T08:23:08;17.23;;;7.18;;
46607;SDS011;32330;51.936;7.184;2024-02-21T08:25:37;12.82;;;6.97;;
46607;SDS011;32330;51.936;7.184;2024-02-21T08:28:04;13.02;;;7.13;;
46607;SDS011;32330;51.936;7.184;2024-02-21T08:30:32;12.00;;;6.43;;
46607;SDS011;32330;51.936;7.184;2024-02-21T08:32:59;11.80;;;6.03;;
46607;SDS011;32330;51.936;7.184;2024-02-21T08:35:26;14.95;;;7.13;;
46607;SDS011;32330;51.936;7.184;2024-02-21T08:37:54;14.15;;;6.57;;
46607;SDS011;32330;51.936;7.184;2024-02-21T08:40:21;14.85;;;7.13;;
46607;SDS011;32330;51.936;7.184;2024-02-21T08:42:49;14.23;;;6.88;;
46607;SDS011;32330;51.936;7.184;2024-02-21T08:45:16;18.48;;;7.82;;
46607;SDS011;32330;51.936;7.184;2024-02-21T08:47:43;13.90;;;6.70;;
46607;SDS011;32330;51.936;7.184;2024-02-21T08:50:11;11.23;;;6.30;;
46607;SDS011;32330;51.936;7.184;2024-02-21T08:52:38;14.45;;;7.43;;
46607;SDS011;32330;51.936;7.184;2024-02-21T08:55:06;12.48;;;7.20;;
46607;SDS011;32330;51.936;7.184;2024-02-21T08:57:33;12.25;;;7.15;;
46607;SDS011;32330;51.936;7.184;2024-02-21T09:00:04;14.35;;;7.10;;
46607;SDS011;32330;51.936;7.184;2024-02-21T09:02:35;12.05;;;6.75;;
46607;SDS011;32330;51.936;7.184;2024-02-21T09:05:04;12.57;;;6.57;;
46607;SDS011;32330;51.936;7.184;2024-02-21T09:07:31;16.08;;;6.90;;
46607;SDS011;32330;51.936;7.184;2024-02-21T09:09:58;12.68;;;7.25;;
46607;SDS011;32330;51.936;7.184;2024-02-21T09:12:26;15.80;;;7.28;;
46607;SDS011;32330;51.936;7.184;2024-02-21T09:14:53;12.82;;;7.70;;
46607;SDS011;32330;51.936;7.184;2024-02-21T09:17:21;11.30;;;7.15;;
46607;SDS011;32330;51.936;7.184;2024-02-21T09:19:50;13.45;;;8.50;;
46607;SDS011;32330;51.936;7.184;2024-02-21T09:22:17;13.93;;;6.55;;
46607;SDS011;32330;51.936;7.184;2024-02-21T09:24:44;11.05;;;6.35;;
46607;SDS011;32330;51.936;7.184;2024-02-21T09:27:12;14.82;;;6.35;;
46607;SDS011;32330;51.936;7.184;2024-02-21T09:29:39;11.57;;;5.75;;
46607;SDS011;32330;51.936;7.184;2024-02-21T09:32:06;10.50;;;6.38;;
46607;SDS011;32330;51.936;7.184;2024-02-21T09:34:35;14.27;;;7.10;;
46607;SDS011;32330;51.936;7.184;2024-02-21T09:37:02;10.65;;;6.38;;
46607;SDS011;32330;51.936;7.184;2024-02-21T09:39:29;9.90;;;6.47;;
46607;SDS011;32330;51.936;7.184;2024-02-21T09:41:58;13.10;;;6.75;;
46607;SDS011;32330;51.936;7.184;2024-02-21T09:44:30;9.07;;;5.85;;
46607;SDS011;32330;51.936;7.184;2024-02-21T09:47:02;10.88;;;5.90;;
46607;SDS011;32330;51.936;7.184;2024-02-21T09:49:33;10.85;;;6.22;;
46607;SDS011;32330;51.936;7.184;2024-02-21T09:52:04;13.88;;;7.13;;
46607;SDS011;32330;51.936;7.184;2024-02-21T09:54:32;10.27;;;6.35;;
46607;SDS011;32330;51.936;7.184;2024-02-21T09:57:00;12.70;;;6.55;;
46607;SDS011;32330;51.936;7.184;2024-02-21T09:59:27;10.73;;;6.30;;
46607;SDS011;32330;51.936;7.184;2024-02-21T10:01:56;13.45;;;7.22;;
46607;SDS011;32330;51.936;7.184;2024-02-21T10:04:25;13.45;;;7.00;;
46607;SDS011;32330;51.936;7.184;2024-02-21T10:06:54;11.90;;;6.95;;
46607;SDS011;32330;51.936;7.184;2024-02-21T10:09:22;14.93;;;7.15;;
46607;SDS011;32330;51.936;7.184;2024-02-21T10:11:49;14.43;;;7.72;;
46607;SDS011;32330;51.936;7.184;2024-02-21T10:14:17;15.18;;;7.85;;
46607;SDS011;32330;51.936;7.184;2024-02-21T10:16:45;12.80;;;7.20;;
46607;SDS011;32330;51.936;7.184;2024-02-21T10:19:17;13.50;;;7.72;;
46607;SDS011;32330;51.936;7.184;2024-02-21T10:21:45;15.50;;;9.45;;
46607;SDS011;32330;51.936;7.184;2024-02-21T10:24:29;15.13;;;8.68;;
46607;SDS011;32330;51.936;7.184;2024-02-21T10:27:04;14.05;;;8.90;;
46607;SDS011;32330;51.936;7.184;2024-02-21T10:29:33;12.90;;;8.65;;
46607;SDS011;32330;51.936;7.184;2024-02-21T10:32:04;13.80;;;9.35;;
46607;SDS011;32330;51.936;7.184;2024-02-21T10:34:32;16.50;;;8.60;;
46607;SDS011;32330;51.936;7.184;2024-02-21T10:37:00;15.32;;;8.90;;
46607;SDS011;32330;51.936;7.184;2024-02-21T10:39:29;15.45;;;8.02;;
46607;SDS011;32330;51.936;7.184;2024-02-21T10:41:59;15.60;;;8.20;;
46607;SDS011;32330;51.936;7.184;2024-02-21T10:44:28;13.85;;;8.73;;
46607;SDS011;32330;51.936;7.184;2024-02-21T10:46:56;12.20;;;7.82;;
46607;SDS011;32330;51.936;7.184;2024-02-21T10:49:24;15.80;;;7.78;;
46607;SDS011;32330;51.936;7.184;2024-02-21T10:51:54;11.55;;;7.35;;
46607;SDS011;32330;51.936;7.184;2024-02-21T10:54:40;8.90;;;7.18;;
46607;SDS011;32330;51.936;7.184;2024-02-21T10:57:12;8.82;;;6.18;;
46607;SDS011;32330;51.936;7.184;2024-02-21T10:59:40;9.35;;;5.47;;
46607;SDS011;32330;51.936;7.184;2024-02-21T11:02:08;13.38;;;6.43;;
46607;SDS011;32330;51.936;7.184;2024-02-21T11:04:35;13.95;;;7.00;;
46607;SDS011;32330;51.936;7.184;2024-02-21T11:07:03;13.77;;;7.10;;
46607;SDS011;32330;51.936;7.184;2024-02-21T11:09:32;18.08;;;8.55;;
46607;SDS011;32330;51.936;7.184;2024-02-21T11:12:01;15.85;;;9.95;;
46607;SDS011;32330;51.936;7.184;2024-02-21T11:14:29;15.30;;;9.05;;
46607;SDS011;32330;51.936;7.184;2024-02-21T11:16:58;17.10;;;8.75;;
46607;SDS011;32330;51.936;7.184;2024-02-21T11:19:26;16.70;;;8.18;;
46607;SDS011;32330;51.936;7.184;2024-02-21T11:21:54;10.23;;;6.63;;
46607;SDS011;32330;51.936;7.184;2024-02-21T11:24:25;10.45;;;6.95;;
46607;SDS011;32330;51.936;7.184;2024-02-21T11:26:54;15.63;;;7.30;;
46607;SDS011;32330;51.936;7.184;2024-02-21T11:29:25;15.10;;;7.28;;
46607;SDS011;32330;51.936;7.184;2024-02-21T11:31:54;12.73;;;6.80;;
46607;SDS011;32330;51.936;7.184;2024-02-21T11:34:21;9.45;;;6.25;;
46607;SDS011;32330;51.936;7.184;2024-02-21T11:36:49;11.95;;;5.88;;
46607;SDS011;32330;51.936;7.184;2024-02-21T11:39:20;13.20;;;6.45;;
46607;SDS011;32330;51.936;7.184;2024-02-21T11:41:59;10.23;;;5.90;;
46607;SDS011;32330;51.936;7.184;2024-02-21T11:44:28;12.80;;;5.35;;
46607;SDS011;32330;51.936;7.184;2024-02-21T11:46:56;12.40;;;5.57;;
46607;SDS011;32330;51.936;7.184;2024-02-21T11:49:24;9.52;;;5.35;;
46607;SDS011;32330;51.936;7.184;2024-02-21T11:51:57;9.88;;;5.00;;
46607;SDS011;32330;51.936;7.184;2024-02-21T11:54:25;10.63;;;5.53;;
46607;SDS011;32330;51.936;7.184;2024-02-21T11:56:53;10.63;;;4.80;;
46607;SDS011;32330;51.936;7.184;2024-02-21T11:59:20;9.20;;;4.20;;
46607;SDS011;32330;51.936;7.184;2024-02-21T12:01:48;7.90;;;4.68;;
46607;SDS011;32330;51.936;7.184;2024-02-21T12:04:17;10.00;;;4.10;;
46607;SDS011;32330;51.936;7.184;2024-02-21T12:06:45;7.25;;;3.88;;
46607;SDS011;32330;51.936;7.184;2024-02-21T12:09:13;7.38;;;4.20;;
46607;SDS011;32330;51.936;7.184;2024-02-21T12:11:41;11.27;;;4.68;;
46607;SDS011;32330;51.936;7.184;2024-02-21T12:14:08;7.55;;;3.97;;
46607;SDS011;32330;51.936;7.184;2024-02-21T12:16:36;11.35;;;5.05;;
46607;SDS011;32330;51.936;7.184;2024-02-21T12:19:04;11.18;;;4.57;;
46607;SDS011;32330;51.936;7.184;2024-02-21T12:21:33;8.13;;;3.30;;
46607;SDS011;32330;51.936;7.184;2024-02-21T12:24:11;12.25;;;5.05;;
46607;SDS011;32330;51.936;7.184;2024-02-21T12:26:39;8.90;;;4.22;;
46607;SDS011;32330;51.936;7.184;2024-02-21T12:29:06;9.05;;;4.93;;
46607;SDS011;32330;51.936;7.184;2024-02-21T12:31:34;9.75;;;5.35;;
46607;SDS011;32330;51.936;7.184;2024-02-21T12:34:01;9.48;;;3.65;;
46607;SDS011;32330;51.936;7.184;2024-02-21T12:36:30;8.30;;;4.18;;
46607;SDS011;32330;51.936;7.184;2024-02-21T12:38:57;9.73;;;5.03;;
46607;SDS011;32330;51.936;7.184;2024-02-21T12:41:25;9.13;;;4.15;;
46607;SDS011;32330;51.936;7.184;2024-02-21T12:43:52;7.72;;;4.05;;
46607;SDS011;32330;51.936;7.184;2024-02-21T12:46:19;7.15;;;3.60;;
46607;SDS011;32330;51.936;7.184;2024-02-21T12:48:47;10.40;;;5.15;;
46607;SDS011;32330;51.936;7.184;2024-02-21T12:51:14;8.57;;;4.30;;
46607;SDS011;32330;51.936;7.184;2024-02-21T12:53:48;7.72;;;3.80;;
46607;SDS011;32330;51.936;7.184;2024-02-21T12:56:15;10.32;;;4.07;;
46607;SDS011;32330;51.936;7.184;2024-02-21T12:58:42;6.97;;;3.28;;
46607;SDS011;32330;51.936;7.184;2024-02-21T13:01:10;9.55;;;4.60;;
46607;SDS011;32330;51.936;7.184;2024-02-21T13:03:37;8.88;;;3.85;;
46607;SDS011;32330;51.936;7.184;2024-02-21T13:06:04;7.15;;;3.53;;
46607;SDS011;32330;51.936;7.184;2024-02-21T13:08:31;11.68;;;4.72;;
46607;SDS011;32330;51.936;7.184;2024-02-21T13:11:01;9.40;;;4.00;;
46607;SDS011;32330;51.936;7.184;2024-02-21T13:13:29;7.40;;;3.63;;
46607;SDS011;32330;51.936;7.184;2024-02-21T13:15:56;10.50;;;4.03;;
46607;SDS011;32330;51.936;7.184;2024-02-21T13:18:23;8.57;;;4.25;;
46607;SDS011;32330;51.936;7.184;2024-02-21T13:20:50;8.60;;;3.80;;
46607;SDS011;32330;51.936;7.184;2024-02-21T13:23:18;8.38;;;3.80;;
46607;SDS011;32330;51.936;7.184;2024-02-21T13:25:46;9.93;;;4.07;;
46607;SDS011;32330;51.936;7.184;2024-02-21T13:28:15;7.97;;;3.47;;
46607;SDS011;32330;51.936;7.184;2024-02-21T13:30:43;9.55;;;4.05;;
46607;SDS011;32330;51.936;7.184;2024-02-21T13:33:10;10.57;;;4.20;;
46607;SDS011;32330;51.936;7.184;2024-02-21T13:35:37;9.15;;;3.63;;
46607;SDS011;32330;51.936;7.184;2024-02-21T13:38:04;9.13;;;3.95;;
46607;SDS011;32330;51.936;7.184;2024-02-21T13:40:33;7.68;;;3.78;;
46607;SDS011;32330;51.936;7.184;2024-02-21T13:43:00;12.02;;;4.60;;
46607;SDS011;32330;51.936;7.184;2024-02-21T13:45:28;10.23;;;3.78;;
46607;SDS011;32330;51.936;7.184;2024-02-21T13:47:56;8.07;;;3.75;;
46607;SDS011;32330;51.936;7.184;2024-02-21T13:50:25;7.65;;;3.60;;
46607;SDS011;32330;51.936;7.184;2024-02-21T13:52:57;8.80;;;3.40;;
46607;SDS011;32330;51.936;7.184;2024-02-21T13:55:24;10.30;;;3.75;;
46607;SDS011;32330;51.936;7.184;2024-02-21T13:57:52;7.78;;;3.63;;
46607;SDS011;32330;51.936;7.184;2024-02-21T14:00:19;9.20;;;3.47;;
46607;SDS011;32330;51.936;7.184;2024-02-21T14:02:47;10.07;;;4.22;;
46607;SDS011;32330;51.936;7.184;2024-02-21T14:05:14;9.52;;;4.20;;
46607;SDS011;32330;51.936;7.184;2024-02-21T14:07:41;10.68;;;4.53;;
46607;SDS011;32330;51.936;7.184;2024-02-21T14:10:08;9.32;;;4.60;;
46607;SDS011;32330;51.936;7.184;2024-02-21T14:12:36;13.10;;;5.95;;
46607;SDS011;32330;51.936;7.184;2024-02-21T14:15:03;9.43;;;4.20;;
46607;SDS011;32330;51.936;7.184;2024-02-21T14:17:31;10.07;;;3.75;;
46607;SDS011;32330;51.936;7.184;2024-02-21T14:20:00;10.70;;;4.75;;
46607;SDS011;32330;51.936;7.184;2024-02-21T14:22:27;12.95;;;5.80;;
46607;SDS011;32330;51.936;7.184;2024-02-21T14:24:54;12.57;;;5.43;;
46607;SDS011;32330;51.936;7.184;2024-02-21T14:27:21;8.38;;;4.22;;
46607;SDS011;32330;51.936;7.184;2024-02-21T14:29:48;8.32;;;4.78;;
46607;SDS011;32330;51.936;7.184;2024-02-21T14:32:16;15.95;;;5.60;;
46607;SDS011;32330;51.936;7.184;2024-02-21T14:34:43;14.73;;;5.10;;
46607;SDS011;32330;51.936;7.184;2024-02-21T14:37:12;10.63;;;5.35;;
46607;SDS011;32330;51.936;7.184;2024-02-21T14:39:39;10.00;;;4.22;;
46607;SDS011;32330;51.936;7.184;2024-02-21T14:42:06;9.27;;;4.45;;
46607;SDS011;32330;51.936;7.184;2024-02-21T14:44:34;11.45;;;3.38;;